GAP2924 RPVI-RPVA
Flight info
| Callsign | GAP2924 |
|---|---|
| Flight time | 0h 34m |
| Altitude | 23000 |
| Route | BCD1N BCD TR2 MCT G578 POXOS POXOS2R |
| Aircraft | A20N/M-SDE2E3FGHIRWXY/LB1 |
Departure
| Time | 2026-04-21 14:41 |
|---|---|
| Airport | Iloilo International Airport (RPVI) |
Arrival
| Time | 2026-04-21 15:15 |
|---|---|
| Airport | Daniel Z. Romualdez Airport (RPVA) |
| Time | Latitude | Longitude | Altitude | Speed | Heading |
|---|---|---|---|---|---|
| 2026-04-21 14:13 | 10.83163 | 122.49663 | 175 ft | 0 kts | 110° |
| 2026-04-21 14:28 | 10.83164 | 122.49662 | 175 ft | 1 kts | 111° |
| 2026-04-21 14:28 | 10.83168 | 122.49648 | 175 ft | 2 kts | 110° |
| 2026-04-21 14:29 | 10.83174 | 122.49634 | 175 ft | 2 kts | 110° |
| 2026-04-21 14:29 | 10.83179 | 122.49619 | 175 ft | 2 kts | 110° |
| 2026-04-21 14:29 | 10.83184 | 122.49605 | 175 ft | 2 kts | 109° |
| 2026-04-21 14:29 | 10.83193 | 122.49594 | 175 ft | 2 kts | 156° |
| 2026-04-21 14:30 | 10.83207 | 122.49592 | 175 ft | 1 kts | 194° |
| 2026-04-21 14:30 | 10.83213 | 122.49594 | 175 ft | 1 kts | 204° |
| 2026-04-21 14:30 | 10.83216 | 122.49595 | 175 ft | 0 kts | 200° |
| 2026-04-21 14:36 | 10.83210 | 122.49593 | 175 ft | 1 kts | 200° |
| 2026-04-21 14:36 | 10.83186 | 122.49583 | 175 ft | 5 kts | 200° |
| 2026-04-21 14:36 | 10.83136 | 122.49564 | 175 ft | 9 kts | 200° |
| 2026-04-21 14:37 | 10.83064 | 122.49538 | 175 ft | 10 kts | 199° |
| 2026-04-21 14:37 | 10.83027 | 122.49487 | 175 ft | 10 kts | 271° |
| 2026-04-21 14:37 | 10.83052 | 122.49411 | 175 ft | 12 kts | 290° |
| 2026-04-21 14:37 | 10.83083 | 122.49329 | 175 ft | 11 kts | 290° |
| 2026-04-21 14:38 | 10.83068 | 122.49251 | 176 ft | 13 kts | 208° |
| 2026-04-21 14:38 | 10.82977 | 122.49216 | 176 ft | 14 kts | 201° |
| 2026-04-21 14:38 | 10.82877 | 122.49179 | 176 ft | 15 kts | 200° |
| 2026-04-21 14:38 | 10.82769 | 122.49136 | 176 ft | 17 kts | 201° |
| 2026-04-21 14:39 | 10.82654 | 122.49095 | 176 ft | 17 kts | 198° |
| 2026-04-21 14:39 | 10.82533 | 122.49052 | 176 ft | 18 kts | 200° |
| 2026-04-21 14:39 | 10.82408 | 122.49004 | 176 ft | 19 kts | 199° |
| 2026-04-21 14:39 | 10.82292 | 122.48982 | 176 ft | 8 kts | 171° |
| 2026-04-21 14:40 | 10.82257 | 122.48966 | 176 ft | 6 kts | 321° |
| 2026-04-21 14:40 | 10.82296 | 122.48964 | 176 ft | 0 kts | 20° |
| 2026-04-21 14:40 | 10.82372 | 122.48993 | 176 ft | 39 kts | 20° |
| 2026-04-21 14:41 | 10.82865 | 122.49174 | 176 ft | 106 kts | 21° |
| 2026-04-21 14:41 | 10.83746 | 122.49503 | 180 ft | 159 kts | 22° |
| 2026-04-21 14:41 | 10.84810 | 122.49901 | 607 ft | 167 kts | 22° |
| 2026-04-21 14:41 | 10.85932 | 122.50298 | 1190 ft | 172 kts | 22° |
| 2026-04-21 14:42 | 10.87037 | 122.50700 | 1914 ft | 168 kts | 24° |
| 2026-04-21 14:42 | 10.88162 | 122.51123 | 2358 ft | 178 kts | 24° |
| 2026-04-21 14:42 | 10.89384 | 122.51585 | 2692 ft | 195 kts | 24° |
| 2026-04-21 14:42 | 10.90692 | 122.52076 | 3030 ft | 211 kts | 23° |
| 2026-04-21 14:43 | 10.92119 | 122.52634 | 3316 ft | 232 kts | 29° |
| 2026-04-21 14:43 | 10.93355 | 122.53725 | 3716 ft | 245 kts | 59° |
| 2026-04-21 14:43 | 10.93858 | 122.55411 | 4290 ft | 255 kts | 89° |
| 2026-04-21 14:43 | 10.93492 | 122.57152 | 5014 ft | 261 kts | 109° |
| 2026-04-21 14:44 | 10.92829 | 122.58872 | 5738 ft | 265 kts | 109° |
| 2026-04-21 14:44 | 10.92181 | 122.60642 | 6491 ft | 269 kts | 109° |
| 2026-04-21 14:44 | 10.91544 | 122.62415 | 7236 ft | 272 kts | 108° |
| 2026-04-21 14:44 | 10.90897 | 122.64230 | 7953 ft | 276 kts | 109° |
| 2026-04-21 14:45 | 10.90241 | 122.66080 | 8651 ft | 280 kts | 109° |
| 2026-04-21 14:45 | 10.89804 | 122.67319 | 9115 ft | 283 kts | 109° |
| 2026-04-21 14:45 | 10.88906 | 122.69868 | 10015 ft | 289 kts | 109° |
| 2026-04-21 14:45 | 10.88225 | 122.71799 | 10557 ft | 298 kts | 110° |
| 2026-04-21 14:46 | 10.87501 | 122.73847 | 10867 ft | 315 kts | 110° |
| 2026-04-21 14:46 | 10.86735 | 122.76005 | 11149 ft | 332 kts | 110° |
| 2026-04-21 14:46 | 10.85926 | 122.78284 | 11414 ft | 348 kts | 110° |
| 2026-04-21 14:46 | 10.85095 | 122.80623 | 11724 ft | 361 kts | 110° |
| 2026-04-21 14:47 | 10.84238 | 122.83042 | 12261 ft | 366 kts | 110° |
| 2026-04-21 14:47 | 10.83363 | 122.85508 | 12810 ft | 370 kts | 110° |
| 2026-04-21 14:47 | 10.82488 | 122.87981 | 13303 ft | 375 kts | 110° |
| 2026-04-21 14:47 | 10.81611 | 122.90451 | 13812 ft | 379 kts | 110° |
| 2026-04-21 14:48 | 10.80712 | 122.92987 | 14362 ft | 381 kts | 110° |
| 2026-04-21 14:48 | 10.79801 | 122.95557 | 14901 ft | 384 kts | 110° |
| 2026-04-21 14:48 | 10.78899 | 122.98099 | 15398 ft | 387 kts | 110° |
| 2026-04-21 14:48 | 10.77970 | 123.00687 | 15911 ft | 389 kts | 111° |
| 2026-04-21 14:49 | 10.76912 | 123.03240 | 16423 ft | 391 kts | 115° |
| 2026-04-21 14:49 | 10.75749 | 123.05716 | 16919 ft | 393 kts | 116° |
| 2026-04-21 14:49 | 10.74550 | 123.08234 | 17408 ft | 395 kts | 116° |
| 2026-04-21 14:49 | 10.73354 | 123.10744 | 17872 ft | 398 kts | 116° |
| 2026-04-21 14:50 | 10.72544 | 123.12449 | 18175 ft | 400 kts | 116° |
| 2026-04-21 14:50 | 10.70928 | 123.15852 | 18771 ft | 403 kts | 116° |
| 2026-04-21 14:50 | 10.69705 | 123.18426 | 19214 ft | 405 kts | 116° |
| 2026-04-21 14:50 | 10.68468 | 123.21028 | 19651 ft | 407 kts | 116° |
| 2026-04-21 14:51 | 10.67239 | 123.23610 | 20075 ft | 410 kts | 116° |
| 2026-04-21 14:51 | 10.65989 | 123.26238 | 20490 ft | 412 kts | 116° |
| 2026-04-21 14:51 | 10.64737 | 123.28868 | 20895 ft | 414 kts | 116° |
| 2026-04-21 14:51 | 10.63479 | 123.31506 | 21297 ft | 416 kts | 116° |
| 2026-04-21 14:52 | 10.62213 | 123.34158 | 21689 ft | 418 kts | 116° |
| 2026-04-21 14:52 | 10.60939 | 123.36813 | 22075 ft | 420 kts | 116° |
| 2026-04-21 14:52 | 10.59656 | 123.39494 | 22461 ft | 423 kts | 116° |
| 2026-04-21 14:52 | 10.58366 | 123.42195 | 22828 ft | 424 kts | 116° |
| 2026-04-21 14:53 | 10.57085 | 123.44879 | 22930 ft | 425 kts | 116° |
| 2026-04-21 14:53 | 10.55784 | 123.47607 | 22929 ft | 424 kts | 116° |
| 2026-04-21 14:53 | 10.54506 | 123.50316 | 22925 ft | 424 kts | 114° |
| 2026-04-21 14:53 | 10.53757 | 123.53165 | 22832 ft | 424 kts | 93° |
| 2026-04-21 14:54 | 10.54116 | 123.56137 | 22892 ft | 427 kts | 74° |
| 2026-04-21 14:54 | 10.55097 | 123.59026 | 22914 ft | 429 kts | 71° |
| 2026-04-21 14:54 | 10.56090 | 123.61890 | 22867 ft | 428 kts | 71° |
| 2026-04-21 14:54 | 10.57041 | 123.64721 | 22900 ft | 429 kts | 72° |
| 2026-04-21 14:55 | 10.57992 | 123.67640 | 22782 ft | 429 kts | 72° |
| 2026-04-21 14:55 | 10.58906 | 123.70513 | 22542 ft | 426 kts | 73° |
| 2026-04-21 14:55 | 10.59808 | 123.73380 | 22452 ft | 430 kts | 73° |
| 2026-04-21 14:55 | 10.60720 | 123.76294 | 22773 ft | 431 kts | 73° |
| 2026-04-21 14:56 | 10.61625 | 123.79197 | 22855 ft | 430 kts | 73° |
| 2026-04-21 14:56 | 10.62513 | 123.82047 | 22609 ft | 426 kts | 73° |
| 2026-04-21 14:56 | 10.63407 | 123.84920 | 22352 ft | 424 kts | 73° |
| 2026-04-21 14:56 | 10.64298 | 123.87785 | 22072 ft | 423 kts | 73° |
| 2026-04-21 14:57 | 10.65185 | 123.90639 | 21675 ft | 421 kts | 73° |
| 2026-04-21 14:57 | 10.66055 | 123.93439 | 21217 ft | 418 kts | 73° |
| 2026-04-21 14:57 | 10.66921 | 123.96233 | 20730 ft | 415 kts | 73° |
| 2026-04-21 14:57 | 10.67786 | 123.99019 | 20227 ft | 413 kts | 73° |
| 2026-04-21 14:58 | 10.68650 | 124.01804 | 19717 ft | 411 kts | 73° |
| 2026-04-21 14:58 | 10.69507 | 124.04567 | 19205 ft | 409 kts | 73° |
| 2026-04-21 14:58 | 10.70360 | 124.07319 | 18714 ft | 406 kts | 73° |
| 2026-04-21 14:58 | 10.71209 | 124.10056 | 18215 ft | 403 kts | 73° |
| 2026-04-21 14:59 | 10.72044 | 124.12751 | 17707 ft | 401 kts | 73° |
| 2026-04-21 14:59 | 10.72878 | 124.15442 | 17215 ft | 398 kts | 73° |
| 2026-04-21 14:59 | 10.73705 | 124.18115 | 16722 ft | 396 kts | 73° |
| 2026-04-21 14:59 | 10.74531 | 124.20784 | 16221 ft | 394 kts | 73° |
| 2026-04-21 15:00 | 10.75352 | 124.23438 | 15719 ft | 392 kts | 73° |
| 2026-04-21 15:00 | 10.76169 | 124.26078 | 15184 ft | 391 kts | 73° |
| 2026-04-21 15:00 | 10.76989 | 124.28731 | 14648 ft | 390 kts | 73° |
| 2026-04-21 15:00 | 10.77802 | 124.31358 | 14144 ft | 388 kts | 72° |
| 2026-04-21 15:01 | 10.78606 | 124.33959 | 13645 ft | 386 kts | 72° |
| 2026-04-21 15:01 | 10.79413 | 124.36572 | 13145 ft | 384 kts | 72° |
| 2026-04-21 15:01 | 10.80214 | 124.39150 | 12669 ft | 381 kts | 73° |
| 2026-04-21 15:01 | 10.81003 | 124.41707 | 12210 ft | 377 kts | 73° |
| 2026-04-21 15:02 | 10.81775 | 124.44222 | 11778 ft | 373 kts | 73° |
| 2026-04-21 15:02 | 10.82552 | 124.46750 | 11345 ft | 369 kts | 73° |
| 2026-04-21 15:02 | 10.83312 | 124.49215 | 10928 ft | 364 kts | 73° |
| 2026-04-21 15:02 | 10.84071 | 124.51674 | 10498 ft | 361 kts | 73° |
| 2026-04-21 15:03 | 10.84821 | 124.54099 | 10256 ft | 350 kts | 73° |
| 2026-04-21 15:03 | 10.85534 | 124.56414 | 10152 ft | 335 kts | 73° |
| 2026-04-21 15:03 | 10.86220 | 124.58642 | 10064 ft | 320 kts | 73° |
| 2026-04-21 15:03 | 10.86855 | 124.60741 | 10000 ft | 305 kts | 75° |
| 2026-04-21 15:04 | 10.87336 | 124.62818 | 9799 ft | 297 kts | 80° |
| 2026-04-21 15:04 | 10.87658 | 124.64891 | 9499 ft | 292 kts | 82° |
| 2026-04-21 15:04 | 10.87943 | 124.66913 | 9204 ft | 288 kts | 83° |
| 2026-04-21 15:04 | 10.88225 | 124.68928 | 8911 ft | 284 kts | 82° |
| 2026-04-21 15:05 | 10.88503 | 124.70897 | 8619 ft | 281 kts | 82° |
| 2026-04-21 15:05 | 10.89057 | 124.74778 | 8037 ft | 274 kts | 82° |
| 2026-04-21 15:05 | 10.89331 | 124.76685 | 7743 ft | 270 kts | 82° |
| 2026-04-21 15:06 | 10.89605 | 124.78595 | 7446 ft | 267 kts | 82° |
| 2026-04-21 15:06 | 10.89871 | 124.80446 | 7155 ft | 264 kts | 82° |
| 2026-04-21 15:06 | 10.90135 | 124.82276 | 6865 ft | 261 kts | 82° |
| 2026-04-21 15:06 | 10.90399 | 124.84110 | 6578 ft | 258 kts | 82° |
| 2026-04-21 15:07 | 10.90658 | 124.85898 | 6300 ft | 255 kts | 82° |
| 2026-04-21 15:07 | 10.90915 | 124.87676 | 6017 ft | 252 kts | 82° |
| 2026-04-21 15:07 | 10.91169 | 124.89442 | 5731 ft | 250 kts | 82° |
| 2026-04-21 15:07 | 10.91418 | 124.91180 | 5443 ft | 248 kts | 82° |
| 2026-04-21 15:08 | 10.91666 | 124.92911 | 5161 ft | 244 kts | 82° |
| 2026-04-21 15:08 | 10.91910 | 124.94613 | 4901 ft | 240 kts | 82° |
| 2026-04-21 15:08 | 10.92152 | 124.96301 | 4633 ft | 236 kts | 82° |
| 2026-04-21 15:08 | 10.92385 | 124.97922 | 4479 ft | 227 kts | 81° |
| 2026-04-21 15:09 | 10.92852 | 124.99414 | 4232 ft | 223 kts | 58° |
| 2026-04-21 15:09 | 10.93980 | 125.00478 | 3980 ft | 223 kts | 29° |
| 2026-04-21 15:09 | 10.95485 | 125.00966 | 3714 ft | 224 kts | 13° |
| 2026-04-21 15:09 | 10.97033 | 125.01133 | 3465 ft | 223 kts | 7° |
| 2026-04-21 15:10 | 10.98589 | 125.01215 | 3211 ft | 220 kts | 7° |
| 2026-04-21 15:10 | 11.00118 | 125.01286 | 2965 ft | 217 kts | 7° |
| 2026-04-21 15:10 | 11.01622 | 125.01369 | 2748 ft | 211 kts | 7° |
| 2026-04-21 15:10 | 11.03045 | 125.01456 | 2807 ft | 197 kts | 8° |
| 2026-04-21 15:11 | 11.04361 | 125.01540 | 2758 ft | 182 kts | 8° |
| 2026-04-21 15:11 | 11.05581 | 125.01621 | 2693 ft | 166 kts | 8° |
| 2026-04-21 15:11 | 11.06687 | 125.01696 | 2600 ft | 153 kts | 9° |
| 2026-04-21 15:11 | 11.07751 | 125.01771 | 2537 ft | 152 kts | 9° |
| 2026-04-21 15:12 | 11.08811 | 125.01846 | 2456 ft | 152 kts | 9° |
| 2026-04-21 15:12 | 11.09870 | 125.01917 | 2359 ft | 152 kts | 9° |
| 2026-04-21 15:12 | 11.10931 | 125.01987 | 2152 ft | 151 kts | 9° |
| 2026-04-21 15:12 | 11.11989 | 125.02054 | 1950 ft | 150 kts | 9° |
| 2026-04-21 15:13 | 11.12684 | 125.02100 | 1822 ft | 149 kts | 9° |
| 2026-04-21 15:13 | 11.14076 | 125.02193 | 1545 ft | 148 kts | 9° |
| 2026-04-21 15:13 | 11.15095 | 125.02259 | 1359 ft | 143 kts | 9° |
| 2026-04-21 15:13 | 11.16062 | 125.02322 | 1163 ft | 137 kts | 8° |
| 2026-04-21 15:14 | 11.17017 | 125.02387 | 985 ft | 137 kts | 8° |
| 2026-04-21 15:14 | 11.17971 | 125.02452 | 805 ft | 136 kts | 7° |
| 2026-04-21 15:14 | 11.18930 | 125.02515 | 624 ft | 136 kts | 7° |
| 2026-04-21 15:14 | 11.19876 | 125.02575 | 421 ft | 136 kts | 5° |
| 2026-04-21 15:15 | 11.20820 | 125.02625 | 240 ft | 134 kts | 7° |
| 2026-04-21 15:15 | 11.21766 | 125.02705 | 59 ft | 134 kts | 5° |
| 2026-04-21 15:15 | 11.22621 | 125.02756 | 16 ft | 102 kts | 6° |
| 2026-04-21 15:15 | 11.23123 | 125.02799 | 16 ft | 41 kts | 5° |
| 2026-04-21 15:16 | 11.23314 | 125.02814 | 15 ft | 19 kts | 2° |
| 2026-04-21 15:16 | 11.23415 | 125.02832 | 15 ft | 8 kts | 355° |
| 2026-04-21 15:16 | 11.23397 | 125.02811 | 15 ft | 7 kts | 186° |
| 2026-04-21 15:16 | 11.23328 | 125.02811 | 15 ft | 12 kts | 182° |
| 2026-04-21 15:17 | 11.23225 | 125.02805 | 16 ft | 16 kts | 184° |
| 2026-04-21 15:17 | 11.23099 | 125.02797 | 15 ft | 19 kts | 184° |
| 2026-04-21 15:17 | 11.22958 | 125.02786 | 16 ft | 21 kts | 184° |
| 2026-04-21 15:17 | 11.22808 | 125.02772 | 16 ft | 15 kts | 185° |
| 2026-04-21 15:18 | 11.22752 | 125.02721 | 17 ft | 9 kts | 245° |
| 2026-04-21 15:18 | 11.22721 | 125.02689 | 17 ft | 6 kts | 183° |
| 2026-04-21 15:18 | 11.22668 | 125.02689 | 17 ft | 5 kts | 186° |
| 2026-04-21 15:18 | 11.22657 | 125.02665 | 18 ft | 4 kts | 271° |
| 2026-04-21 15:19 | 11.22657 | 125.02654 | 18 ft | 0 kts | 271° |